sensor_id;sensor_type;location;lat;lon;timestamp;pressure;altitude;pressure_sealevel;temperature;humidity
7026;BME280;3554;42.132;24.786;2024-01-06T00:01:10;99192.31;;;8.75;100.00
7026;BME280;3554;42.132;24.786;2024-01-06T00:03:39;99177.53;;;8.76;100.00
7026;BME280;3554;42.132;24.786;2024-01-06T00:06:06;99172.56;;;8.68;100.00
7026;BME280;3554;42.132;24.786;2024-01-06T00:08:33;99166.72;;;8.61;100.00
7026;BME280;3554;42.132;24.786;2024-01-06T00:11:00;99154.19;;;8.71;100.00
7026;BME280;3554;42.132;24.786;2024-01-06T00:13:28;99154.72;;;8.81;100.00
7026;BME280;3554;42.132;24.786;2024-01-06T00:15:55;99151.78;;;8.90;100.00
7026;BME280;3554;42.132;24.786;2024-01-06T00:18:22;99163.97;;;8.89;100.00
7026;BME280;3554;42.132;24.786;2024-01-06T00:20:50;99158.47;;;8.74;100.00
7026;BME280;3554;42.132;24.786;2024-01-06T00:23:17;99167.75;;;8.81;100.00
7026;BME280;3554;42.132;24.786;2024-01-06T00:25:44;99170.09;;;8.88;100.00
7026;BME280;3554;42.132;24.786;2024-01-06T00:28:11;99184.25;;;8.81;100.00
7026;BME280;3554;42.132;24.786;2024-01-06T00:30:38;99184.75;;;8.68;100.00
7026;BME280;3554;42.132;24.786;2024-01-06T00:33:05;99185.69;;;8.67;100.00
7026;BME280;3554;42.132;24.786;2024-01-06T00:35:32;99186.06;;;8.56;100.00
7026;BME280;3554;42.132;24.786;2024-01-06T00:38:00;99171.91;;;8.63;100.00
7026;BME280;3554;42.132;24.786;2024-01-06T00:40:27;99174.19;;;8.72;100.00
7026;BME280;3554;42.132;24.786;2024-01-06T00:42:54;99169.03;;;8.46;100.00
7026;BME280;3554;42.132;24.786;2024-01-06T00:45:21;99167.75;;;8.57;100.00
7026;BME280;3554;42.132;24.786;2024-01-06T00:47:49;99161.91;;;8.74;100.00
7026;BME280;3554;42.132;24.786;2024-01-06T00:50:16;99158.81;;;8.88;100.00
7026;BME280;3554;42.132;24.786;2024-01-06T00:52:44;99143.25;;;8.85;100.00
7026;BME280;3554;42.132;24.786;2024-01-06T00:55:13;99138.78;;;8.88;100.00
7026;BME280;3554;42.132;24.786;2024-01-06T00:57:40;99132.44;;;8.94;100.00
7026;BME280;3554;42.132;24.786;2024-01-06T01:00:07;99131.72;;;8.90;100.00
7026;BME280;3554;42.132;24.786;2024-01-06T01:02:34;99143.59;;;8.76;100.00
7026;BME280;3554;42.132;24.786;2024-01-06T01:05:01;99150.50;;;8.53;100.00
7026;BME280;3554;42.132;24.786;2024-01-06T01:07:28;99142.16;;;8.67;100.00
7026;BME280;3554;42.132;24.786;2024-01-06T01:09:56;99145.75;;;8.64;100.00
7026;BME280;3554;42.132;24.786;2024-01-06T01:12:25;99143.84;;;8.45;100.00
7026;BME280;3554;42.132;24.786;2024-01-06T01:14:52;99145.03;;;8.36;100.00
7026;BME280;3554;42.132;24.786;2024-01-06T01:17:19;99088.13;;;7.98;100.00
7026;BME280;3554;42.132;24.786;2024-01-06T01:19:46;99120.47;;;8.42;100.00
7026;BME280;3554;42.132;24.786;2024-01-06T01:22:13;99093.72;;;8.12;100.00
7026;BME280;3554;42.132;24.786;2024-01-06T01:24:41;99109.97;;;7.94;100.00
7026;BME280;3554;42.132;24.786;2024-01-06T01:27:08;99094.88;;;7.79;100.00
7026;BME280;3554;42.132;24.786;2024-01-06T01:29:37;99120.84;;;8.07;100.00
7026;BME280;3554;42.132;24.786;2024-01-06T01:32:04;99109.59;;;8.31;100.00
7026;BME280;3554;42.132;24.786;2024-01-06T01:34:32;99128.16;;;8.46;100.00
7026;BME280;3554;42.132;24.786;2024-01-06T01:36:59;99130.97;;;8.40;100.00
7026;BME280;3554;42.132;24.786;2024-01-06T01:39:26;99127.88;;;8.54;100.00
7026;BME280;3554;42.132;24.786;2024-01-06T01:41:53;99121.63;;;8.58;100.00
7026;BME280;3554;42.132;24.786;2024-01-06T01:44:20;99125.09;;;8.58;100.00
7026;BME280;3554;42.132;24.786;2024-01-06T01:46:48;99130.16;;;8.63;100.00
7026;BME280;3554;42.132;24.786;2024-01-06T01:49:15;99135.41;;;8.61;100.00
7026;BME280;3554;42.132;24.786;2024-01-06T01:51:43;99128.69;;;8.56;100.00
7026;BME280;3554;42.132;24.786;2024-01-06T01:54:10;99126.56;;;8.42;100.00
7026;BME280;3554;42.132;24.786;2024-01-06T01:56:38;99130.03;;;8.43;100.00
7026;BME280;3554;42.132;24.786;2024-01-06T01:59:09;99122.25;;;8.41;100.00
7026;BME280;3554;42.132;24.786;2024-01-06T02:01:37;99080.00;;;8.32;100.00
7026;BME280;3554;42.132;24.786;2024-01-06T02:04:07;99120.00;;;8.55;100.00
7026;BME280;3554;42.132;24.786;2024-01-06T02:06:34;99125.16;;;8.57;100.00
7026;BME280;3554;42.132;24.786;2024-01-06T02:09:01;99130.56;;;8.52;100.00
7026;BME280;3554;42.132;24.786;2024-01-06T02:11:28;99110.50;;;8.53;100.00
7026;BME280;3554;42.132;24.786;2024-01-06T02:13:55;99108.16;;;8.47;100.00
7026;BME280;3554;42.132;24.786;2024-01-06T02:16:22;99096.72;;;8.49;100.00
7026;BME280;3554;42.132;24.786;2024-01-06T02:18:49;99101.22;;;8.46;100.00
7026;BME280;3554;42.132;24.786;2024-01-06T02:21:19;99098.66;;;8.44;100.00
7026;BME280;3554;42.132;24.786;2024-01-06T02:23:49;99086.56;;;8.42;100.00
7026;BME280;3554;42.132;24.786;2024-01-06T02:26:16;99101.66;;;8.34;100.00
7026;BME280;3554;42.132;24.786;2024-01-06T02:28:43;99102.47;;;8.36;100.00
7026;BME280;3554;42.132;24.786;2024-01-06T02:31:13;99077.28;;;8.10;100.00
7026;BME280;3554;42.132;24.786;2024-01-06T02:33:40;99090.16;;;8.15;100.00
7026;BME280;3554;42.132;24.786;2024-01-06T02:36:07;99098.72;;;8.18;100.00
7026;BME280;3554;42.132;24.786;2024-01-06T02:38:34;99100.25;;;8.25;100.00
7026;BME280;3554;42.132;24.786;2024-01-06T02:41:03;99098.53;;;8.24;100.00
7026;BME280;3554;42.132;24.786;2024-01-06T02:43:30;99091.66;;;8.22;100.00
7026;BME280;3554;42.132;24.786;2024-01-06T02:45:57;99067.53;;;8.15;100.00
7026;BME280;3554;42.132;24.786;2024-01-06T02:48:24;99089.88;;;8.22;100.00
7026;BME280;3554;42.132;24.786;2024-01-06T02:50:51;99083.81;;;8.22;100.00
7026;BME280;3554;42.132;24.786;2024-01-06T02:53:18;99079.50;;;8.21;100.00
7026;BME280;3554;42.132;24.786;2024-01-06T02:55:44;99093.31;;;8.24;100.00
7026;BME280;3554;42.132;24.786;2024-01-06T02:58:13;99102.00;;;8.25;100.00
7026;BME280;3554;42.132;24.786;2024-01-06T03:00:40;99096.94;;;8.19;100.00
7026;BME280;3554;42.132;24.786;2024-01-06T03:03:07;99093.28;;;8.26;100.00
7026;BME280;3554;42.132;24.786;2024-01-06T03:05:34;99092.19;;;8.31;100.00
7026;BME280;3554;42.132;24.786;2024-01-06T03:08:02;99095.81;;;8.27;100.00
7026;BME280;3554;42.132;24.786;2024-01-06T03:10:29;99089.25;;;8.16;100.00
7026;BME280;3554;42.132;24.786;2024-01-06T03:12:56;99098.44;;;8.27;100.00
7026;BME280;3554;42.132;24.786;2024-01-06T03:15:25;99092.03;;;8.11;100.00
7026;BME280;3554;42.132;24.786;2024-01-06T03:17:52;99088.00;;;8.03;100.00
7026;BME280;3554;42.132;24.786;2024-01-06T03:20:19;99079.06;;;8.10;100.00
7026;BME280;3554;42.132;24.786;2024-01-06T03:22:46;99075.09;;;8.23;100.00
7026;BME280;3554;42.132;24.786;2024-01-06T03:25:13;99080.63;;;8.38;100.00
7026;BME280;3554;42.132;24.786;2024-01-06T03:27:40;99078.66;;;8.20;100.00
7026;BME280;3554;42.132;24.786;2024-01-06T03:30:08;99069.94;;;8.21;100.00
7026;BME280;3554;42.132;24.786;2024-01-06T03:32:36;99077.19;;;8.38;100.00
7026;BME280;3554;42.132;24.786;2024-01-06T03:35:04;99072.78;;;8.40;100.00
7026;BME280;3554;42.132;24.786;2024-01-06T03:37:32;99076.38;;;8.36;100.00
7026;BME280;3554;42.132;24.786;2024-01-06T03:39:59;99077.25;;;8.36;100.00
7026;BME280;3554;42.132;24.786;2024-01-06T03:42:26;99074.84;;;8.06;100.00
7026;BME280;3554;42.132;24.786;2024-01-06T03:44:53;99079.38;;;8.25;100.00
7026;BME280;3554;42.132;24.786;2024-01-06T03:47:20;99081.66;;;8.34;100.00
7026;BME280;3554;42.132;24.786;2024-01-06T03:49:49;99079.25;;;8.28;100.00
7026;BME280;3554;42.132;24.786;2024-01-06T03:52:16;99084.59;;;8.25;100.00
7026;BME280;3554;42.132;24.786;2024-01-06T03:54:42;99085.97;;;8.35;100.00
7026;BME280;3554;42.132;24.786;2024-01-06T03:57:09;99041.03;;;8.04;100.00
7026;BME280;3554;42.132;24.786;2024-01-06T03:59:36;99076.53;;;8.31;100.00
7026;BME280;3554;42.132;24.786;2024-01-06T04:02:03;99032.91;;;8.12;100.00
7026;BME280;3554;42.132;24.786;2024-01-06T04:04:30;99066.81;;;8.36;100.00
7026;BME280;3554;42.132;24.786;2024-01-06T04:06:59;99072.25;;;8.30;100.00
7026;BME280;3554;42.132;24.786;2024-01-06T04:09:26;99081.06;;;8.26;100.00
7026;BME280;3554;42.132;24.786;2024-01-06T04:11:53;99081.38;;;8.17;100.00
7026;BME280;3554;42.132;24.786;2024-01-06T04:14:20;99080.41;;;8.20;100.00
7026;BME280;3554;42.132;24.786;2024-01-06T04:16:47;99075.78;;;8.28;100.00
7026;BME280;3554;42.132;24.786;2024-01-06T04:19:14;99085.41;;;8.27;100.00
7026;BME280;3554;42.132;24.786;2024-01-06T04:21:41;99077.63;;;8.26;100.00
7026;BME280;3554;42.132;24.786;2024-01-06T04:24:10;99075.03;;;8.26;100.00
7026;BME280;3554;42.132;24.786;2024-01-06T04:26:37;99066.41;;;8.22;100.00
7026;BME280;3554;42.132;24.786;2024-01-06T04:29:04;99069.03;;;8.24;100.00
7026;BME280;3554;42.132;24.786;2024-01-06T04:31:30;99070.66;;;8.26;100.00
7026;BME280;3554;42.132;24.786;2024-01-06T04:33:57;99075.03;;;8.26;100.00
7026;BME280;3554;42.132;24.786;2024-01-06T04:36:24;99067.25;;;8.24;100.00
7026;BME280;3554;42.132;24.786;2024-01-06T04:38:51;99067.25;;;8.24;100.00
7026;BME280;3554;42.132;24.786;2024-01-06T04:41:19;99062.97;;;8.22;100.00
7026;BME280;3554;42.132;24.786;2024-01-06T04:43:47;99077.34;;;8.09;100.00
7026;BME280;3554;42.132;24.786;2024-01-06T04:46:14;99074.63;;;7.87;100.00
7026;BME280;3554;42.132;24.786;2024-01-06T04:48:41;99074.47;;;7.67;100.00
7026;BME280;3554;42.132;24.786;2024-01-06T04:51:09;99071.06;;;7.65;100.00
7026;BME280;3554;42.132;24.786;2024-01-06T04:53:36;99073.41;;;7.46;100.00
7026;BME280;3554;42.132;24.786;2024-01-06T04:56:04;99074.81;;;7.56;100.00
7026;BME280;3554;42.132;24.786;2024-01-06T04:58:32;99081.63;;;7.60;100.00
7026;BME280;3554;42.132;24.786;2024-01-06T05:01:00;99078.66;;;7.71;100.00
7026;BME280;3554;42.132;24.786;2024-01-06T05:03:27;99082.13;;;7.72;100.00
7026;BME280;3554;42.132;24.786;2024-01-06T05:05:54;99086.22;;;7.79;100.00
7026;BME280;3554;42.132;24.786;2024-01-06T05:08:21;99081.63;;;7.85;100.00
7026;BME280;3554;42.132;24.786;2024-01-06T05:10:52;99073.88;;;8.08;100.00
7026;BME280;3554;42.132;24.786;2024-01-06T05:13:19;99057.06;;;7.92;100.00
7026;BME280;3554;42.132;24.786;2024-01-06T05:15:48;99083.59;;;8.03;100.00
7026;BME280;3554;42.132;24.786;2024-01-06T05:18:15;99082.91;;;7.98;100.00
7026;BME280;3554;42.132;24.786;2024-01-06T05:20:42;99076.84;;;7.98;100.00
7026;BME280;3554;42.132;24.786;2024-01-06T05:23:09;99068.94;;;8.01;100.00
7026;BME280;3554;42.132;24.786;2024-01-06T05:25:36;99091.97;;;8.13;100.00
7026;BME280;3554;42.132;24.786;2024-01-06T05:28:03;99099.66;;;8.16;100.00
7026;BME280;3554;42.132;24.786;2024-01-06T05:30:30;99093.72;;;8.12;100.00
7026;BME280;3554;42.132;24.786;2024-01-06T05:32:59;99078.25;;;8.08;100.00
7026;BME280;3554;42.132;24.786;2024-01-06T05:35:26;99095.94;;;8.23;100.00
7026;BME280;3554;42.132;24.786;2024-01-06T05:37:52;99097.13;;;8.14;100.00
7026;BME280;3554;42.132;24.786;2024-01-06T05:40:20;99099.41;;;8.23;100.00
7026;BME280;3554;42.132;24.786;2024-01-06T05:42:47;99117.72;;;8.22;100.00
7026;BME280;3554;42.132;24.786;2024-01-06T05:45:14;99104.13;;;8.12;100.00
7026;BME280;3554;42.132;24.786;2024-01-06T05:47:41;99102.44;;;8.11;100.00
7026;BME280;3554;42.132;24.786;2024-01-06T05:50:10;99109.59;;;8.06;100.00
7026;BME280;3554;42.132;24.786;2024-01-06T05:52:37;99111.44;;;8.03;100.00
7026;BME280;3554;42.132;24.786;2024-01-06T05:55:04;99080.63;;;7.89;100.00
7026;BME280;3554;42.132;24.786;2024-01-06T05:57:31;99100.16;;;8.02;100.00
7026;BME280;3554;42.132;24.786;2024-01-06T05:59:59;99101.03;;;8.03;100.00
7026;BME280;3554;42.132;24.786;2024-01-06T06:02:26;99105.25;;;8.05;100.00
7026;BME280;3554;42.132;24.786;2024-01-06T06:04:53;99105.16;;;8.08;100.00
7026;BME280;3554;42.132;24.786;2024-01-06T06:07:21;99101.84;;;8.03;100.00
7026;BME280;3554;42.132;24.786;2024-01-06T06:09:48;99102.53;;;8.08;100.00
7026;BME280;3554;42.132;24.786;2024-01-06T06:12:15;99090.81;;;7.97;100.00
7026;BME280;3554;42.132;24.786;2024-01-06T06:14:42;99093.94;;;8.06;100.00
7026;BME280;3554;42.132;24.786;2024-01-06T06:17:09;99088.69;;;8.08;100.00
7026;BME280;3554;42.132;24.786;2024-01-06T06:19:36;99083.72;;;8.00;100.00
7026;BME280;3554;42.132;24.786;2024-01-06T06:22:04;99083.22;;;7.65;100.00
7026;BME280;3554;42.132;24.786;2024-01-06T06:24:32;99081.94;;;7.76;100.00
7026;BME280;3554;42.132;24.786;2024-01-06T06:26:59;99064.06;;;7.92;100.00
7026;BME280;3554;42.132;24.786;2024-01-06T06:29:26;99064.56;;;8.01;100.00
7026;BME280;3554;42.132;24.786;2024-01-06T06:31:54;99063.69;;;8.02;100.00
7026;BME280;3554;42.132;24.786;2024-01-06T06:34:21;99069.44;;;8.10;100.00
7026;BME280;3554;42.132;24.786;2024-01-06T06:36:48;99062.63;;;8.08;100.00
7026;BME280;3554;42.132;24.786;2024-01-06T06:39:15;99051.16;;;8.12;100.00
7026;BME280;3554;42.132;24.786;2024-01-06T06:41:45;99034.06;;;7.80;100.00
7026;BME280;3554;42.132;24.786;2024-01-06T06:44:12;99042.25;;;7.70;100.00
7026;BME280;3554;42.132;24.786;2024-01-06T06:46:39;99031.56;;;7.52;100.00
7026;BME280;3554;42.132;24.786;2024-01-06T06:49:06;99046.59;;;7.69;100.00
7026;BME280;3554;42.132;24.786;2024-01-06T06:51:33;99058.66;;;7.72;100.00
7026;BME280;3554;42.132;24.786;2024-01-06T06:54:00;99057.31;;;7.60;100.00
7026;BME280;3554;42.132;24.786;2024-01-06T06:56:27;99047.31;;;7.48;100.00
7026;BME280;3554;42.132;24.786;2024-01-06T06:58:55;99045.94;;;7.38;100.00
7026;BME280;3554;42.132;24.786;2024-01-06T07:01:22;99053.94;;;7.58;100.00
7026;BME280;3554;42.132;24.786;2024-01-06T07:03:49;99057.13;;;7.66;100.00
7026;BME280;3554;42.132;24.786;2024-01-06T07:06:16;99056.25;;;7.66;100.00
7026;BME280;3554;42.132;24.786;2024-01-06T07:08:43;99057.88;;;7.70;100.00
7026;BME280;3554;42.132;24.786;2024-01-06T07:11:10;99050.16;;;7.67;100.00
7026;BME280;3554;42.132;24.786;2024-01-06T07:13:37;99054.03;;;7.80;100.00
7026;BME280;3554;42.132;24.786;2024-01-06T07:16:06;99034.59;;;7.65;100.00
7026;BME280;3554;42.132;24.786;2024-01-06T07:18:33;99028.84;;;7.55;100.00
7026;BME280;3554;42.132;24.786;2024-01-06T07:21:00;99039.16;;;7.58;100.00
7026;BME280;3554;42.132;24.786;2024-01-06T07:23:27;99035.59;;;7.61;100.00
7026;BME280;3554;42.132;24.786;2024-01-06T07:25:55;99029.06;;;7.74;100.00
7026;BME280;3554;42.132;24.786;2024-01-06T07:28:22;99017.00;;;7.47;100.00
7026;BME280;3554;42.132;24.786;2024-01-06T07:30:49;99054.03;;;7.80;100.00
7026;BME280;3554;42.132;24.786;2024-01-06T07:33:18;99063.00;;;7.97;100.00
7026;BME280;3554;42.132;24.786;2024-01-06T07:35:45;99066.28;;;8.02;100.00
7026;BME280;3554;42.132;24.786;2024-01-06T07:38:12;99052.13;;;8.09;100.00
7026;BME280;3554;42.132;24.786;2024-01-06T07:40:39;99040.72;;;8.12;100.00
7026;BME280;3554;42.132;24.786;2024-01-06T07:43:07;99037.38;;;8.08;100.00
7026;BME280;3554;42.132;24.786;2024-01-06T07:45:34;99041.47;;;8.15;100.00
7026;BME280;3554;42.132;24.786;2024-01-06T07:48:01;99048.16;;;8.22;100.00
7026;BME280;3554;42.132;24.786;2024-01-06T07:50:29;99052.34;;;8.28;100.00
7026;BME280;3554;42.132;24.786;2024-01-06T07:52:56;99041.72;;;8.09;100.00
7026;BME280;3554;42.132;24.786;2024-01-06T07:55:23;99055.84;;;8.27;100.00
7026;BME280;3554;42.132;24.786;2024-01-06T07:57:54;99057.69;;;8.23;100.00
7026;BME280;3554;42.132;24.786;2024-01-06T08:00:21;99053.38;;;8.22;100.00
7026;BME280;3554;42.132;24.786;2024-01-06T08:02:48;99052.00;;;8.37;100.00
7026;BME280;3554;42.132;24.786;2024-01-06T08:05:15;99055.19;;;8.45;100.00
7026;BME280;3554;42.132;24.786;2024-01-06T08:07:43;99053.38;;;8.47;100.00
7026;BME280;3554;42.132;24.786;2024-01-06T08:10:10;99042.63;;;8.54;100.00
7026;BME280;3554;42.132;24.786;2024-01-06T08:12:37;99048.31;;;8.65;100.00
7026;BME280;3554;42.132;24.786;2024-01-06T08:15:05;99047.06;;;8.76;100.00
7026;BME280;3554;42.132;24.786;2024-01-06T08:17:34;99048.47;;;8.84;100.00
7026;BME280;3554;42.132;24.786;2024-01-06T08:20:01;99054.50;;;8.85;100.00
7026;BME280;3554;42.132;24.786;2024-01-06T08:22:28;99059.69;;;8.86;100.00
7026;BME280;3554;42.132;24.786;2024-01-06T08:24:57;99065.44;;;8.94;100.00
7026;BME280;3554;42.132;24.786;2024-01-06T08:27:24;99061.22;;;8.92;100.00
7026;BME280;3554;42.132;24.786;2024-01-06T08:29:51;99068.44;;;9.07;100.00
7026;BME280;3554;42.132;24.786;2024-01-06T08:32:18;99069.28;;;9.07;100.00
7026;BME280;3554;42.132;24.786;2024-01-06T08:34:45;99066.44;;;9.13;100.00
7026;BME280;3554;42.132;24.786;2024-01-06T08:37:12;99062.72;;;9.19;100.00
7026;BME280;3554;42.132;24.786;2024-01-06T08:39:39;99060.78;;;9.24;100.00
7026;BME280;3554;42.132;24.786;2024-01-06T08:42:08;99015.44;;;8.83;100.00
7026;BME280;3554;42.132;24.786;2024-01-06T08:44:35;99055.03;;;9.16;100.00
7026;BME280;3554;42.132;24.786;2024-01-06T08:47:02;99044.81;;;9.10;100.00
7026;BME280;3554;42.132;24.786;2024-01-06T08:49:29;99030.59;;;9.17;100.00
7026;BME280;3554;42.132;24.786;2024-01-06T08:51:55;99028.97;;;9.36;100.00
7026;BME280;3554;42.132;24.786;2024-01-06T08:54:22;99045.06;;;9.47;100.00
7026;BME280;3554;42.132;24.786;2024-01-06T08:56:50;99042.50;;;9.65;100.00
7026;BME280;3554;42.132;24.786;2024-01-06T08:59:18;99034.47;;;9.50;100.00
7026;BME280;3554;42.132;24.786;2024-01-06T09:01:45;99003.63;;;9.58;100.00
7026;BME280;3554;42.132;24.786;2024-01-06T09:04:12;99044.75;;;9.95;100.00
7026;BME280;3554;42.132;24.786;2024-01-06T09:06:40;99045.91;;;9.88;100.00
7026;BME280;3554;42.132;24.786;2024-01-06T09:09:07;99038.31;;;10.02;100.00
7026;BME280;3554;42.132;24.786;2024-01-06T09:11:35;99033.75;;;9.87;100.00
7026;BME280;3554;42.132;24.786;2024-01-06T09:14:02;99031.72;;;9.93;100.00
7026;BME280;3554;42.132;24.786;2024-01-06T09:16:30;99024.31;;;10.03;100.00
7026;BME280;3554;42.132;24.786;2024-01-06T09:18:57;99022.97;;;10.14;100.00
7026;BME280;3554;42.132;24.786;2024-01-06T09:21:24;99019.59;;;10.12;100.00
7026;BME280;3554;42.132;24.786;2024-01-06T09:23:51;99024.31;;;10.03;100.00
7026;BME280;3554;42.132;24.786;2024-01-06T09:26:18;99026.31;;;10.18;100.00
7026;BME280;3554;42.132;24.786;2024-01-06T09:28:45;99007.16;;;10.17;100.00
7026;BME280;3554;42.132;24.786;2024-01-06T09:31:13;99010.34;;;10.04;100.00
7026;BME280;3554;42.132;24.786;2024-01-06T09:33:41;99004.88;;;10.10;100.00
7026;BME280;3554;42.132;24.786;2024-01-06T09:36:08;98996.75;;;10.16;100.00
7026;BME280;3554;42.132;24.786;2024-01-06T09:38:37;98988.19;;;10.31;100.00
7026;BME280;3554;42.132;24.786;2024-01-06T09:41:04;98995.56;;;10.23;100.00
7026;BME280;3554;42.132;24.786;2024-01-06T09:43:31;98990.97;;;10.28;100.00
7026;BME280;3554;42.132;24.786;2024-01-06T09:46:05;98995.03;;;10.15;100.00
7026;BME280;3554;42.132;24.786;2024-01-06T09:48:35;98982.06;;;10.32;100.00
7026;BME280;3554;42.132;24.786;2024-01-06T09:51:09;98976.97;;;10.47;100.00
7026;BME280;3554;42.132;24.786;2024-01-06T09:53:43;98968.25;;;10.47;100.00
7026;BME280;3554;42.132;24.786;2024-01-06T09:56:11;98959.16;;;10.55;100.00
7026;BME280;3554;42.132;24.786;2024-01-06T09:58:39;98953.47;;;10.64;100.00
7026;BME280;3554;42.132;24.786;2024-01-06T10:01:06;98958.13;;;10.76;100.00
7026;BME280;3554;42.132;24.786;2024-01-06T10:03:35;98946.44;;;10.84;100.00
7026;BME280;3554;42.132;24.786;2024-01-06T10:06:02;98948.22;;;10.83;100.00
7026;BME280;3554;42.132;24.786;2024-01-06T10:08:31;98940.00;;;10.91;100.00
7026;BME280;3554;42.132;24.786;2024-01-06T10:11:00;98935.03;;;10.85;100.00
7026;BME280;3554;42.132;24.786;2024-01-06T10:13:28;98933.38;;;10.84;100.00
7026;BME280;3554;42.132;24.786;2024-01-06T10:15:56;98934.41;;;10.79;100.00
7026;BME280;3554;42.132;24.786;2024-01-06T10:18:25;98928.94;;;10.84;100.00
7026;BME280;3554;42.132;24.786;2024-01-06T10:20:52;98921.78;;;10.88;100.00
7026;BME280;3554;42.132;24.786;2024-01-06T10:23:22;98919.19;;;10.88;100.00
7026;BME280;3554;42.132;24.786;2024-01-06T10:25:53;98920.97;;;11.04;100.00
7026;BME280;3554;42.132;24.786;2024-01-06T10:28:20;98919.06;;;11.08;100.00
7026;BME280;3554;42.132;24.786;2024-01-06T10:30:48;98914.97;;;11.02;100.00
7026;BME280;3554;42.132;24.786;2024-01-06T10:33:16;98908.13;;;11.17;100.00
7026;BME280;3554;42.132;24.786;2024-01-06T10:35:43;98909.34;;;11.27;100.00
7026;BME280;3554;42.132;24.786;2024-01-06T10:38:11;98897.19;;;11.26;100.00
7026;BME280;3554;42.132;24.786;2024-01-06T10:40:38;98899.78;;;11.26;100.00
7026;BME280;3554;42.132;24.786;2024-01-06T10:43:07;98902.50;;;11.24;100.00
7026;BME280;3554;42.132;24.786;2024-01-06T10:45:35;98888.41;;;10.93;100.00
7026;BME280;3554;42.132;24.786;2024-01-06T10:48:05;98894.69;;;11.06;100.00
7026;BME280;3554;42.132;24.786;2024-01-06T10:50:33;98896.16;;;11.11;100.00
7026;BME280;3554;42.132;24.786;2024-01-06T10:53:00;98878.63;;;11.13;100.00
7026;BME280;3554;42.132;24.786;2024-01-06T10:55:29;98857.19;;;10.88;100.00
7026;BME280;3554;42.132;24.786;2024-01-06T10:57:58;98868.69;;;11.03;100.00
7026;BME280;3554;42.132;24.786;2024-01-06T11:00:27;98862.69;;;10.84;100.00
7026;BME280;3554;42.132;24.786;2024-01-06T11:02:55;98838.03;;;10.70;100.00
7026;BME280;3554;42.132;24.786;2024-01-06T11:05:23;98834.94;;;10.79;100.00
7026;BME280;3554;42.132;24.786;2024-01-06T11:07:51;98836.72;;;10.79;100.00
7026;BME280;3554;42.132;24.786;2024-01-06T11:10:25;98833.06;;;10.64;100.00
7026;BME280;3554;42.132;24.786;2024-01-06T11:13:11;98836.97;;;10.74;100.00
7026;BME280;3554;42.132;24.786;2024-01-06T11:15:48;98834.09;;;10.79;100.00
7026;BME280;3554;42.132;24.786;2024-01-06T11:18:35;98827.38;;;10.73;100.00
7026;BME280;3554;42.132;24.786;2024-01-06T11:21:19;98793.16;;;10.78;100.00
7026;BME280;3554;42.132;24.786;2024-01-06T11:26:51;98784.53;;;10.59;100.00
7026;BME280;3554;42.132;24.786;2024-01-06T11:29:19;98812.44;;;11.10;100.00
7026;BME280;3554;42.132;24.786;2024-01-06T11:32:19;98811.22;;;10.82;100.00
7026;BME280;3554;42.132;24.786;2024-01-06T11:34:50;98809.94;;;10.91;100.00
7026;BME280;3554;42.132;24.786;2024-01-06T11:37:27;98803.22;;;11.03;100.00
7026;BME280;3554;42.132;24.786;2024-01-06T11:40:02;98798.69;;;10.89;100.00
7026;BME280;3554;42.132;24.786;2024-01-06T11:42:32;98752.13;;;10.78;100.00
7026;BME280;3554;42.132;24.786;2024-01-06T11:45:04;98774.63;;;11.15;100.00
7026;BME280;3554;42.132;24.786;2024-01-06T11:47:34;98788.22;;;11.22;100.00
7026;BME280;3554;42.132;24.786;2024-01-06T11:50:02;98789.84;;;11.24;100.00
7026;BME280;3554;42.132;24.786;2024-01-06T11:52:33;98786.66;;;11.35;100.00
7026;BME280;3554;42.132;24.786;2024-01-06T11:55:00;98788.91;;;11.58;100.00
7026;BME280;3554;42.132;24.786;2024-01-06T11:57:27;98754.56;;;11.47;100.00
7026;BME280;3554;42.132;24.786;2024-01-06T11:59:55;98789.13;;;11.70;100.00
7026;BME280;3554;42.132;24.786;2024-01-06T12:02:22;98769.50;;;11.29;100.00
7026;BME280;3554;42.132;24.786;2024-01-06T12:04:51;98769.03;;;11.54;100.00
7026;BME280;3554;42.132;24.786;2024-01-06T12:07:20;98771.19;;;11.78;100.00
7026;BME280;3554;42.132;24.786;2024-01-06T12:09:47;98773.31;;;12.03;100.00
7026;BME280;3554;42.132;24.786;2024-01-06T12:12:15;98774.16;;;11.88;100.00
7026;BME280;3554;42.132;24.786;2024-01-06T12:14:42;98775.41;;;12.28;100.00
7026;BME280;3554;42.132;24.786;2024-01-06T12:17:11;98768.50;;;12.41;100.00
7026;BME280;3554;42.132;24.786;2024-01-06T12:19:39;98774.22;;;12.33;100.00
7026;BME280;3554;42.132;24.786;2024-01-06T12:22:12;98773.69;;;12.27;100.00
7026;BME280;3554;42.132;24.786;2024-01-06T12:24:40;98775.56;;;12.40;100.00
7026;BME280;3554;42.132;24.786;2024-01-06T12:27:07;98761.47;;;12.41;100.00
7026;BME280;3554;42.132;24.786;2024-01-06T12:29:37;98770.34;;;12.54;100.00
7026;BME280;3554;42.132;24.786;2024-01-06T12:32:05;98771.41;;;12.36;100.00
7026;BME280;3554;42.132;24.786;2024-01-06T12:34:33;98761.19;;;12.16;100.00
7026;BME280;3554;42.132;24.786;2024-01-06T12:37:00;98748.59;;;12.07;100.00
7026;BME280;3554;42.132;24.786;2024-01-06T12:39:30;98650.78;;;11.44;100.00
7026;BME280;3554;42.132;24.786;2024-01-06T12:41:58;98742.06;;;12.14;100.00
7026;BME280;3554;42.132;24.786;2024-01-06T12:44:26;98750.06;;;12.27;100.00
7026;BME280;3554;42.132;24.786;2024-01-06T12:46:53;98746.63;;;12.11;100.00
7026;BME280;3554;42.132;24.786;2024-01-06T12:49:20;98748.13;;;12.30;100.00
7026;BME280;3554;42.132;24.786;2024-01-06T12:51:48;98750.97;;;12.41;100.00
7026;BME280;3554;42.132;24.786;2024-01-06T12:54:15;98740.03;;;12.19;100.00
7026;BME280;3554;42.132;24.786;2024-01-06T12:56:44;98737.59;;;12.01;100.00
7026;BME280;3554;42.132;24.786;2024-01-06T12:59:11;98735.31;;;11.95;100.00
7026;BME280;3554;42.132;24.786;2024-01-06T13:01:38;98728.47;;;11.92;100.00
7026;BME280;3554;42.132;24.786;2024-01-06T13:04:05;98710.47;;;11.86;100.00
7026;BME280;3554;42.132;24.786;2024-01-06T13:06:32;98712.38;;;11.98;100.00
7026;BME280;3554;42.132;24.786;2024-01-06T13:08:59;98720.00;;;12.03;100.00
7026;BME280;3554;42.132;24.786;2024-01-06T13:11:27;98719.06;;;12.19;100.00
7026;BME280;3554;42.132;24.786;2024-01-06T13:13:56;98721.94;;;12.15;100.00